createdAt,value
2019-03-18T00:01:06.536Z,5.00
2019-03-18T00:03:35.781Z,5.00
2019-03-18T00:06:04.935Z,5.00
2019-03-18T00:08:34.166Z,4.90
2019-03-18T00:11:03.352Z,4.90
2019-03-18T00:13:32.474Z,4.90
2019-03-18T00:16:01.457Z,4.90
2019-03-18T00:18:30.525Z,4.90
2019-03-18T00:20:59.502Z,4.90
2019-03-18T00:23:28.618Z,4.80
2019-03-18T00:25:57.592Z,4.80
2019-03-18T00:28:26.618Z,4.80
2019-03-18T00:30:55.652Z,4.80
2019-03-18T00:33:24.751Z,4.80
2019-03-18T00:35:53.783Z,4.70
2019-03-18T00:38:22.751Z,4.70
2019-03-18T00:40:51.732Z,4.70
2019-03-18T00:46:15.585Z,4.70
2019-03-18T00:48:44.664Z,4.70
2019-03-18T00:51:13.860Z,4.70
2019-03-18T00:53:42.962Z,4.70
2019-03-18T00:56:12.024Z,4.70
2019-03-18T00:58:41.072Z,4.70
2019-03-18T01:01:10.564Z,4.60
2019-03-18T01:03:39.567Z,4.60
2019-03-18T01:06:08.590Z,4.60
2019-03-18T01:08:37.637Z,4.60
2019-03-18T01:11:07.071Z,4.60
2019-03-18T01:13:36.040Z,4.60
2019-03-18T01:16:05.124Z,4.50
2019-03-18T01:18:34.022Z,4.50
2019-03-18T01:21:03.012Z,4.50
2019-03-18T01:23:31.995Z,4.50
2019-03-18T01:26:00.980Z,4.50
2019-03-18T01:28:30.039Z,4.50
2019-03-18T01:30:59.116Z,4.40
2019-03-18T01:33:28.083Z,4.40
2019-03-18T01:35:57.156Z,4.40
2019-03-18T01:38:26.242Z,4.40
2019-03-18T01:40:55.264Z,4.40
2019-03-18T01:43:24.370Z,4.30
2019-03-18T01:45:53.436Z,4.40
2019-03-18T01:48:22.546Z,4.40
2019-03-18T01:50:51.517Z,4.40
2019-03-18T01:53:20.485Z,4.40
2019-03-18T01:55:49.447Z,4.30
2019-03-18T01:58:18.357Z,4.30
2019-03-18T02:00:47.352Z,4.30
2019-03-18T02:03:16.323Z,4.30
2019-03-18T02:05:45.297Z,4.30
2019-03-18T02:08:14.281Z,4.20
2019-03-18T02:10:43.362Z,4.20
2019-03-18T02:13:12.398Z,4.10
2019-03-18T02:15:52.819Z,4.10
2019-03-18T02:18:12.306Z,4.10
2019-03-18T02:20:41.352Z,4.10
2019-03-18T02:23:10.367Z,4.10
2019-03-18T02:25:39.335Z,4.10
2019-03-18T02:28:08.463Z,4.10
2019-03-18T02:30:37.526Z,4.10
2019-03-18T02:33:06.561Z,4.10
2019-03-18T02:35:35.539Z,4.10
2019-03-18T02:38:04.597Z,4.20
2019-03-18T02:40:33.560Z,4.10
2019-03-18T02:43:02.596Z,4.10
2019-03-18T02:45:31.650Z,4.10
2019-03-18T02:48:00.632Z,4.10
2019-03-18T02:50:29.691Z,4.20
2019-03-18T02:52:58.682Z,4.10
2019-03-18T02:55:27.649Z,4.10
2019-03-18T02:57:56.630Z,4.10
2019-03-18T03:00:25.750Z,4.20
2019-03-18T03:02:54.805Z,4.20
2019-03-18T03:05:23.881Z,4.20
2019-03-18T03:07:52.934Z,4.20
2019-03-18T03:10:22.139Z,4.10
2019-03-18T03:12:51.145Z,4.10
2019-03-18T03:15:20.273Z,4.10
2019-03-18T03:17:49.309Z,4.10
2019-03-18T03:20:18.273Z,4.20
2019-03-18T03:22:47.210Z,4.20
2019-03-18T03:25:16.303Z,4.10
2019-03-18T03:27:45.265Z,4.10
2019-03-18T03:30:14.696Z,4.10
2019-03-18T03:32:43.720Z,4.10
2019-03-18T03:35:12.856Z,4.10
2019-03-18T03:37:41.982Z,4.10
2019-03-18T03:40:11.159Z,4.10
2019-03-18T03:42:40.371Z,4.10
2019-03-18T03:45:09.620Z,4.10
2019-03-18T03:47:38.737Z,4.10
2019-03-18T03:50:07.892Z,4.00
2019-03-18T03:52:36.876Z,4.10
2019-03-18T03:55:06.179Z,4.10
2019-03-18T03:57:35.197Z,4.10
2019-03-18T04:00:05.335Z,4.10
2019-03-18T04:02:34.409Z,4.10
2019-03-18T04:05:03.434Z,4.00
2019-03-18T04:07:32.448Z,4.10
2019-03-18T04:10:01.470Z,4.10
2019-03-18T04:12:30.552Z,4.10
2019-03-18T04:14:59.533Z,4.20
2019-03-18T04:17:28.583Z,4.20
2019-03-18T04:19:57.722Z,4.20
2019-03-18T04:22:26.771Z,4.20
2019-03-18T04:24:55.826Z,4.20
2019-03-18T04:27:25.109Z,4.20
2019-03-18T04:29:54.405Z,4.30
2019-03-18T04:32:23.417Z,4.30
2019-03-18T04:34:52.367Z,4.30
2019-03-18T04:37:21.402Z,4.30
2019-03-18T04:39:50.341Z,4.40
2019-03-18T04:42:19.328Z,4.40
2019-03-18T04:44:48.380Z,4.40
2019-03-18T04:47:17.366Z,4.40
2019-03-18T04:49:46.413Z,4.40
2019-03-18T04:52:15.510Z,4.40
2019-03-18T04:54:44.560Z,4.40
2019-03-18T04:57:13.592Z,4.40
2019-03-18T04:59:42.626Z,4.50
2019-03-18T05:02:11.663Z,4.50
2019-03-18T05:04:40.609Z,4.50
2019-03-18T05:07:09.584Z,4.50
2019-03-18T05:09:38.621Z,4.50
2019-03-18T05:12:07.606Z,4.60
2019-03-18T05:14:36.698Z,4.60
2019-03-18T05:17:05.799Z,4.60
2019-03-18T05:19:34.839Z,4.60
2019-03-18T05:22:03.914Z,4.60
2019-03-18T05:24:32.957Z,4.70
2019-03-18T05:27:01.898Z,4.70
2019-03-18T05:29:30.944Z,4.70
2019-03-18T05:31:59.881Z,4.70
2019-03-18T05:34:28.832Z,4.70
2019-03-18T05:36:57.815Z,4.70
2019-03-18T05:39:26.927Z,4.70
2019-03-18T05:41:55.973Z,4.70
2019-03-18T05:44:24.996Z,4.80
2019-03-18T05:46:54.034Z,4.80
2019-03-18T05:49:23.090Z,4.80
2019-03-18T05:51:52.083Z,4.80
2019-03-18T05:54:21.103Z,4.80
2019-03-18T05:56:50.154Z,4.80
2019-03-18T05:59:19.280Z,4.80
2019-03-18T06:01:48.362Z,4.80
2019-03-18T06:04:17.421Z,4.80
2019-03-18T06:06:46.486Z,4.80
2019-03-18T06:09:15.510Z,4.80
2019-03-18T06:11:44.556Z,4.90
2019-03-18T06:14:13.620Z,4.90
2019-03-18T06:16:42.540Z,4.90
2019-03-18T06:19:11.696Z,5.00
2019-03-18T06:21:40.782Z,5.00
2019-03-18T06:24:09.834Z,5.00
2019-03-18T06:26:38.855Z,5.00
2019-03-18T06:29:08.022Z,5.10
2019-03-18T06:31:37.436Z,5.10
2019-03-18T06:34:06.538Z,5.10
2019-03-18T06:36:35.607Z,5.10
2019-03-18T06:39:06.523Z,5.20
2019-03-18T06:41:35.785Z,5.20
2019-03-18T06:44:04.843Z,5.20
2019-03-18T06:46:33.931Z,5.20
2019-03-18T06:49:03.040Z,5.30
2019-03-18T06:51:32.137Z,5.30
2019-03-18T06:54:01.366Z,5.30
2019-03-18T06:56:30.362Z,5.30
2019-03-18T06:58:59.588Z,5.30
2019-03-18T07:01:28.731Z,5.30
2019-03-18T07:03:57.811Z,5.30
2019-03-18T07:06:26.792Z,5.30
2019-03-18T07:08:55.885Z,5.30
2019-03-18T07:11:24.967Z,5.30
2019-03-18T07:13:54.036Z,5.30
2019-03-18T07:16:23.127Z,5.30
2019-03-18T07:18:52.228Z,5.30
2019-03-18T07:21:21.267Z,5.30
2019-03-18T07:23:50.252Z,5.40
2019-03-18T07:26:19.340Z,5.40
2019-03-18T07:28:48.508Z,5.50
2019-03-18T07:31:17.638Z,5.50
2019-03-18T07:33:46.726Z,5.50
2019-03-18T07:36:15.833Z,5.50
2019-03-18T07:38:44.871Z,5.60
2019-03-18T07:41:13.975Z,5.60
2019-03-18T07:43:43.188Z,5.60
2019-03-18T07:46:12.252Z,5.60
2019-03-18T07:48:41.354Z,5.60
2019-03-18T07:51:10.489Z,5.60
2019-03-18T07:53:39.650Z,5.60
2019-03-18T07:56:08.783Z,5.80
2019-03-18T07:58:37.855Z,6.00
2019-03-18T08:01:06.946Z,6.60
2019-03-18T08:03:36.750Z,6.50
2019-03-18T08:06:06.020Z,6.70
2019-03-18T08:08:35.118Z,6.80
2019-03-18T08:11:04.296Z,7.00
2019-03-18T08:13:33.438Z,7.10
2019-03-18T08:16:02.504Z,7.20
2019-03-18T08:18:42.754Z,7.20
2019-03-18T08:21:02.267Z,7.40
2019-03-18T08:23:31.371Z,7.60
2019-03-18T08:26:00.587Z,7.50
2019-03-18T08:28:29.765Z,7.40
2019-03-18T08:30:58.766Z,7.30
2019-03-18T08:33:27.747Z,7.10
2019-03-18T08:35:56.818Z,7.00
2019-03-18T08:38:25.780Z,7.00
2019-03-18T08:40:54.818Z,6.90
2019-03-18T08:43:23.893Z,6.80
2019-03-18T08:45:52.927Z,6.80
2019-03-18T08:48:22.055Z,6.70
2019-03-18T08:50:51.115Z,6.70
2019-03-18T08:53:20.198Z,6.70
2019-03-18T08:55:49.272Z,6.80
2019-03-18T08:58:18.327Z,6.90
2019-03-18T09:00:47.470Z,6.90
2019-03-18T09:03:16.464Z,7.00
2019-03-18T09:05:45.550Z,7.10
2019-03-18T09:08:14.532Z,7.20
2019-03-18T09:10:43.587Z,7.30
2019-03-18T09:13:12.631Z,7.40
2019-03-18T09:15:41.915Z,7.40
2019-03-18T09:18:10.956Z,7.40
2019-03-18T09:20:40.150Z,7.60
2019-03-18T09:23:09.210Z,7.50
2019-03-18T09:25:38.384Z,7.60
2019-03-18T09:28:07.418Z,7.70
2019-03-18T09:30:36.490Z,7.70
2019-03-18T09:33:05.614Z,7.70
2019-03-18T09:35:34.725Z,7.90
2019-03-18T09:38:03.872Z,8.00
2019-03-18T09:40:33.080Z,7.90
2019-03-18T09:43:02.251Z,7.90
2019-03-18T09:45:31.361Z,8.00
2019-03-18T09:48:00.539Z,8.10
2019-03-18T09:50:29.620Z,8.10
2019-03-18T09:52:58.730Z,8.00
2019-03-18T09:55:27.724Z,8.00
2019-03-18T09:57:56.778Z,8.10
2019-03-18T10:00:25.861Z,8.30
2019-03-18T10:02:54.948Z,8.30
2019-03-18T10:05:24.142Z,8.30
2019-03-18T10:07:53.123Z,8.40
2019-03-18T10:10:22.194Z,8.50
2019-03-18T10:12:51.159Z,8.60
2019-03-18T10:15:20.205Z,8.50
2019-03-18T10:17:49.304Z,8.40
2019-03-18T10:20:18.440Z,8.40
2019-03-18T10:22:47.557Z,8.40
2019-03-18T10:25:16.687Z,8.50
2019-03-18T10:27:45.828Z,8.50
2019-03-18T10:30:14.999Z,8.40
2019-03-18T10:32:44.212Z,8.30
2019-03-18T10:35:13.589Z,8.30
2019-03-18T10:37:42.800Z,8.40
2019-03-18T10:40:12.009Z,8.30
2019-03-18T10:42:41.063Z,8.40
2019-03-18T10:45:10.395Z,8.40
2019-03-18T10:47:39.445Z,8.40
2019-03-18T10:50:09.061Z,8.30
2019-03-18T10:52:38.120Z,8.30
2019-03-18T10:55:08.273Z,8.30
2019-03-18T10:57:37.441Z,8.20
2019-03-18T11:00:07.028Z,8.20
2019-03-18T11:02:36.023Z,8.20
2019-03-18T11:05:08.021Z,8.20
2019-03-18T11:07:36.324Z,8.20
2019-03-18T11:10:06.188Z,8.10
2019-03-18T11:12:35.277Z,8.20
2019-03-18T11:15:04.886Z,8.20
2019-03-18T11:17:34.018Z,8.20
2019-03-18T11:20:03.191Z,8.20
2019-03-18T11:22:32.327Z,8.20
2019-03-18T11:25:01.441Z,8.20
2019-03-18T11:27:30.613Z,8.20
2019-03-18T11:29:59.787Z,8.20
2019-03-18T11:32:29.015Z,8.30
2019-03-18T11:34:58.009Z,8.30
2019-03-18T11:37:27.155Z,8.40
2019-03-18T11:39:56.308Z,8.40
2019-03-18T11:42:25.366Z,8.40
2019-03-18T11:44:54.498Z,8.60
2019-03-18T11:47:23.615Z,8.70
2019-03-18T11:49:52.619Z,8.70
2019-03-18T11:52:21.733Z,8.60
2019-03-18T11:54:50.857Z,8.60
2019-03-18T11:57:20.061Z,8.50
2019-03-18T11:59:49.174Z,8.50
2019-03-18T12:02:27.191Z,8.40
2019-03-18T12:04:48.965Z,8.40
2019-03-18T12:07:18.078Z,8.60
2019-03-18T12:09:47.234Z,8.70
2019-03-18T12:12:16.343Z,8.80
2019-03-18T12:14:45.403Z,9.00
2019-03-18T12:17:14.493Z,9.00
2019-03-18T12:19:43.655Z,9.00
2019-03-18T12:22:12.719Z,8.90
2019-03-18T12:24:41.721Z,9.00
2019-03-18T12:27:30.003Z,9.10
2019-03-18T12:29:59.209Z,9.20
2019-03-18T12:32:28.497Z,9.30
2019-03-18T12:34:57.580Z,9.30
2019-03-18T12:37:26.686Z,9.20
2019-03-18T12:39:55.783Z,9.00
2019-03-18T12:42:24.859Z,8.70
2019-03-18T12:44:53.942Z,8.30
2019-03-18T12:47:23.032Z,8.20
2019-03-18T12:49:52.093Z,8.10
2019-03-18T12:52:21.187Z,8.00
2019-03-18T12:54:50.256Z,8.00
2019-03-18T12:57:19.407Z,7.90
2019-03-18T12:59:48.618Z,7.90
2019-03-18T13:02:17.692Z,7.90
2019-03-18T13:04:46.908Z,7.80
2019-03-18T13:07:15.936Z,7.90
2019-03-18T13:09:45.067Z,7.90
2019-03-18T13:12:14.139Z,8.00
2019-03-18T13:14:43.221Z,8.00
2019-03-18T13:17:12.319Z,7.90
2019-03-18T13:19:42.621Z,8.00
2019-03-18T13:22:11.784Z,8.00
2019-03-18T13:24:40.961Z,8.10
2019-03-18T13:27:10.094Z,8.20
2019-03-18T13:29:39.304Z,8.30
2019-03-18T13:32:08.529Z,8.30
2019-03-18T13:34:37.811Z,8.30
2019-03-18T13:37:07.023Z,8.40
2019-03-18T13:39:37.059Z,8.50
2019-03-18T13:42:06.242Z,8.50
2019-03-18T13:44:35.463Z,8.60
2019-03-18T13:47:04.734Z,8.60
2019-03-18T13:49:33.968Z,8.60
2019-03-18T13:52:03.336Z,8.60
2019-03-18T13:54:32.618Z,8.60
2019-03-18T13:57:01.740Z,8.70
2019-03-18T13:59:30.827Z,8.70
2019-03-18T14:01:59.969Z,8.70
2019-03-18T14:04:29.119Z,8.60
2019-03-18T14:06:58.351Z,8.70
2019-03-18T14:09:27.482Z,8.80
2019-03-18T14:11:56.731Z,8.90
2019-03-18T14:14:25.857Z,8.90
2019-03-18T14:16:55.022Z,8.90
2019-03-18T14:19:24.233Z,8.90
2019-03-18T14:21:53.464Z,9.00
2019-03-18T14:24:22.573Z,9.00
2019-03-18T14:26:51.798Z,8.90
2019-03-18T14:29:20.966Z,8.90
2019-03-18T14:31:50.170Z,8.90
2019-03-18T14:34:19.254Z,8.90
2019-03-18T14:36:48.452Z,8.80
2019-03-18T14:39:17.662Z,8.70
2019-03-18T14:41:46.841Z,8.70
2019-03-18T14:44:15.970Z,8.70
2019-03-18T14:46:45.117Z,8.70
2019-03-18T14:49:14.290Z,8.70
2019-03-18T14:51:46.063Z,8.70
2019-03-18T14:54:14.175Z,8.70
2019-03-18T14:56:43.430Z,8.60
2019-03-18T14:59:12.562Z,8.40
2019-03-18T15:01:41.758Z,8.30
2019-03-18T15:04:10.951Z,8.20
2019-03-18T15:06:40.115Z,8.20
2019-03-18T15:09:09.566Z,8.10
2019-03-18T15:11:38.725Z,8.20
2019-03-18T15:14:08.280Z,8.00
2019-03-18T15:16:37.392Z,7.90
2019-03-18T15:19:06.578Z,7.70
2019-03-18T15:21:35.851Z,7.70
2019-03-18T15:24:16.470Z,7.70
2019-03-18T15:26:35.976Z,7.70
2019-03-18T15:29:05.086Z,7.70
2019-03-18T15:31:34.175Z,7.70
2019-03-18T15:34:03.636Z,7.70
2019-03-18T15:36:32.838Z,7.60
2019-03-18T15:39:02.066Z,7.60
2019-03-18T15:41:31.214Z,7.50
2019-03-18T15:44:00.222Z,7.40
2019-03-18T15:46:29.433Z,7.50
2019-03-18T15:48:58.438Z,7.40
2019-03-18T15:51:27.637Z,7.30
2019-03-18T15:53:56.805Z,7.40
2019-03-18T15:56:25.998Z,7.40
2019-03-18T15:58:55.327Z,7.40
2019-03-18T16:01:24.387Z,7.50
2019-03-18T16:03:53.467Z,7.40
2019-03-18T16:06:22.656Z,7.40
2019-03-18T16:08:51.800Z,7.30
2019-03-18T16:11:20.877Z,7.30
2019-03-18T16:13:50.003Z,7.30
2019-03-18T16:16:19.164Z,7.30
2019-03-18T16:18:48.262Z,7.30
2019-03-18T16:21:17.485Z,7.30
2019-03-18T16:23:46.611Z,7.20
2019-03-18T16:26:15.683Z,7.20
2019-03-18T16:28:44.875Z,7.20
2019-03-18T16:31:13.916Z,7.20
2019-03-18T16:33:43.136Z,7.20
2019-03-18T16:36:12.403Z,7.20
2019-03-18T16:38:41.382Z,6.90
2019-03-18T16:41:12.849Z,6.60
2019-03-18T16:43:42.011Z,6.50
2019-03-18T16:46:11.075Z,6.40
2019-03-18T16:48:40.109Z,6.30
2019-03-18T16:51:09.182Z,6.10
2019-03-18T16:53:38.281Z,6.00
2019-03-18T16:56:07.432Z,5.80
2019-03-18T16:58:36.512Z,5.80
2019-03-18T17:01:05.582Z,5.80
2019-03-18T17:03:34.792Z,5.70
2019-03-18T17:06:03.908Z,5.80
2019-03-18T17:08:33.147Z,5.80
2019-03-18T17:11:02.161Z,5.80
2019-03-18T17:13:31.189Z,5.80
2019-03-18T17:16:00.296Z,5.70
2019-03-18T17:18:29.494Z,5.70
2019-03-18T17:20:58.640Z,5.60
2019-03-18T17:23:27.725Z,5.50
2019-03-18T17:25:56.844Z,5.50
2019-03-18T17:28:25.909Z,5.40
2019-03-18T17:30:54.955Z,5.40
2019-03-18T17:33:24.048Z,5.40
2019-03-18T17:35:53.153Z,5.30
2019-03-18T17:38:22.199Z,5.30
2019-03-18T17:40:51.277Z,5.30
2019-03-18T17:43:20.360Z,5.20
2019-03-18T17:45:49.692Z,5.20
2019-03-18T17:48:18.782Z,5.20
2019-03-18T17:50:47.928Z,5.20
2019-03-18T17:53:17.078Z,5.20
2019-03-18T17:55:46.115Z,5.20
2019-03-18T17:58:15.277Z,5.30
2019-03-18T18:00:47.333Z,5.20
2019-03-18T18:03:16.390Z,5.30
2019-03-18T18:05:45.616Z,5.30
2019-03-18T18:08:14.702Z,5.30
2019-03-18T18:10:44.011Z,5.30
2019-03-18T18:13:13.142Z,5.30
2019-03-18T18:15:42.393Z,5.30
2019-03-18T18:18:11.561Z,5.30
2019-03-18T18:20:40.695Z,5.30
2019-03-18T18:23:14.576Z,5.30
2019-03-18T18:25:40.747Z,5.20
2019-03-18T18:28:09.969Z,5.20
2019-03-18T18:30:39.067Z,5.20
2019-03-18T18:33:08.351Z,5.20
2019-03-18T18:35:37.625Z,5.20
2019-03-18T18:38:06.817Z,5.20
2019-03-18T18:40:35.989Z,5.20
2019-03-18T18:43:05.281Z,5.10
2019-03-18T18:48:20.190Z,5.10
2019-03-18T18:50:50.808Z,5.10
2019-03-18T18:53:26.195Z,5.10
2019-03-18T18:55:51.601Z,5.00
2019-03-18T18:58:20.881Z,5.00
2019-03-18T19:00:50.066Z,5.00
2019-03-18T19:03:38.387Z,5.00
2019-03-18T19:06:07.559Z,5.00
2019-03-18T19:08:36.670Z,5.00
2019-03-18T19:11:05.893Z,5.00
2019-03-18T19:13:35.519Z,5.00
2019-03-18T19:16:05.160Z,5.00
2019-03-18T19:18:38.005Z,5.00
2019-03-18T19:21:05.274Z,4.90
2019-03-18T19:26:37.073Z,4.90
2019-03-18T19:29:06.226Z,4.90
2019-03-18T19:31:35.219Z,4.90
2019-03-18T19:34:04.532Z,4.90
2019-03-18T19:36:33.610Z,4.90
2019-03-18T19:39:03.088Z,4.90
2019-03-18T19:41:32.228Z,4.90
2019-03-18T19:44:01.289Z,4.90
2019-03-18T19:46:30.432Z,4.90
2019-03-18T19:48:59.520Z,4.90
2019-03-18T19:51:28.607Z,4.90
2019-03-18T19:53:57.692Z,4.90
2019-03-18T19:56:26.740Z,4.80
2019-03-18T19:58:56.065Z,4.80
2019-03-18T20:01:25.240Z,4.80
2019-03-18T20:03:54.685Z,4.80
2019-03-18T20:06:23.816Z,4.80
2019-03-18T20:08:53.047Z,4.80
2019-03-18T20:11:22.179Z,4.70
2019-03-18T20:13:52.727Z,4.70
2019-03-18T20:16:24.421Z,4.70
2019-03-18T20:18:55.098Z,4.70
2019-03-18T20:21:24.165Z,4.70
2019-03-18T20:24:00.851Z,4.70
2019-03-18T20:26:23.951Z,4.60
2019-03-18T20:28:53.040Z,4.60
2019-03-18T20:31:25.934Z,4.60
2019-03-18T20:33:53.078Z,4.60
2019-03-18T20:36:22.199Z,4.60
2019-03-18T20:38:51.243Z,4.60
2019-03-18T20:41:20.391Z,4.60
2019-03-18T20:43:49.611Z,4.60
2019-03-18T20:46:18.827Z,4.60
2019-03-18T20:48:47.939Z,4.50
2019-03-18T20:51:17.861Z,4.50
2019-03-18T20:53:46.982Z,4.50
2019-03-18T20:56:16.711Z,4.50
2019-03-18T20:58:45.895Z,4.50
2019-03-18T21:01:14.979Z,4.50
2019-03-18T21:03:44.077Z,4.50
2019-03-18T21:06:13.245Z,4.50
2019-03-18T21:08:43.030Z,4.50
2019-03-18T21:11:12.189Z,4.50
2019-03-18T21:13:41.964Z,4.40
2019-03-18T21:16:11.895Z,4.40
2019-03-18T21:18:44.280Z,4.40
2019-03-18T21:21:13.384Z,4.40
2019-03-18T21:23:42.535Z,4.40
2019-03-18T21:26:12.496Z,4.40
2019-03-18T21:28:41.766Z,4.40
2019-03-18T21:31:11.010Z,4.40
2019-03-18T21:33:40.261Z,4.40
2019-03-18T21:36:09.411Z,4.40
2019-03-18T21:38:38.587Z,4.30
2019-03-18T21:41:07.841Z,4.30
2019-03-18T21:43:37.117Z,4.30
2019-03-18T21:46:06.720Z,4.30
2019-03-18T21:48:35.896Z,4.30
2019-03-18T21:51:05.197Z,4.30
2019-03-18T21:53:34.230Z,4.30
2019-03-18T21:56:03.361Z,4.20
2019-03-18T21:58:33.170Z,4.30
2019-03-18T22:01:02.923Z,4.20
2019-03-18T22:03:31.911Z,4.20
2019-03-18T22:06:01.047Z,4.20
2019-03-18T22:08:30.034Z,4.20
2019-03-18T22:10:59.101Z,4.20
2019-03-18T22:13:28.162Z,4.20
2019-03-18T22:15:57.310Z,4.20
2019-03-18T22:18:26.446Z,4.20
2019-03-18T22:20:56.483Z,4.20
2019-03-18T22:23:25.541Z,4.20
2019-03-18T22:25:54.708Z,4.20
2019-03-18T22:28:23.761Z,4.20
2019-03-18T22:30:52.944Z,4.20
2019-03-18T22:33:22.260Z,4.10
2019-03-18T22:35:51.343Z,4.10
2019-03-18T22:38:20.390Z,4.10
2019-03-18T22:40:49.537Z,4.10
2019-03-18T22:43:18.620Z,4.10
2019-03-18T22:45:47.622Z,4.10
2019-03-18T22:48:16.755Z,4.10
2019-03-18T22:50:45.887Z,4.10
2019-03-18T22:53:14.937Z,4.10
2019-03-18T22:55:44.044Z,4.10
2019-03-18T22:58:13.031Z,4.10
2019-03-18T23:00:49.895Z,4.10
2019-03-18T23:03:19.048Z,4.10
2019-03-18T23:05:48.130Z,4.10
2019-03-18T23:08:17.255Z,4.10
2019-03-18T23:10:46.397Z,4.10
2019-03-18T23:13:15.519Z,4.00
2019-03-18T23:15:44.570Z,4.00
2019-03-18T23:18:13.551Z,4.00
2019-03-18T23:20:42.573Z,4.00
2019-03-18T23:23:11.563Z,4.00
2019-03-18T23:25:40.686Z,4.00
2019-03-18T23:28:09.788Z,3.90
2019-03-18T23:30:38.843Z,3.90
2019-03-18T23:33:07.866Z,3.90
2019-03-18T23:35:36.931Z,3.90
2019-03-18T23:38:06.025Z,3.90
2019-03-18T23:40:35.192Z,3.80
2019-03-18T23:43:04.269Z,3.90
2019-03-18T23:45:33.711Z,3.80
2019-03-18T23:48:02.889Z,3.80
2019-03-18T23:50:31.977Z,3.80
2019-03-18T23:53:01.113Z,3.80
2019-03-18T23:55:30.310Z,3.80
2019-03-18T23:57:59.417Z,3.70
